Time;durP1;ratioP1;P1;durP2;ratioP2;P2;SDS_P1;SDS_P2;PMS_P1;PMS_P2;Temp;Humidity;BMP_temperature;BMP_pressure;BME280_temperature;BME280_humidity;BME280_pressure;Samples;Min_cycle;Max_cycle;Signal;HPM_P1;HPM_P2
2024/04/18 00:00:51;;;;;;;;;6.50;5.00;;;;;10.82;60.42;101102.03;5426493;26;48448;-67
2024/04/18 00:03:16;;;;;;;;;4.00;4.00;;;;;10.79;59.82;101104.78;5427654;26;43914;-67
2024/04/18 00:05:42;;;;;;;;;6.00;6.00;;;;;10.74;60.23;101097.78;5425171;26;43838;-67
2024/04/18 00:08:07;;;;;;;;;3.75;3.00;;;;;10.79;60.09;101113.66;5394169;26;43895;-67
2024/04/18 00:10:32;;;;;;;;;5.00;5.00;;;;;10.69;60.34;101101.47;5423985;26;52434;-67
2024/04/18 00:12:58;;;;;;;;;5.75;4.00;;;;;10.74;60.04;101107.56;5427377;26;51132;-67
2024/04/18 00:15:23;;;;;;;;;4.25;3.00;;;;;10.72;60.62;101107.59;5413650;26;44367;-67
2024/04/18 00:17:48;;;;;;;;;5.00;4.50;;;;;10.70;60.99;101109.44;5415302;26;44084;-67
2024/04/18 00:20:14;;;;;;;;;5.00;3.00;;;;;10.74;60.45;101113.81;5425333;26;43829;-67
2024/04/18 00:22:39;;;;;;;;;5.00;3.50;;;;;10.59;60.30;101089.28;5429652;26;45188;-67
2024/04/18 00:25:06;;;;;;;;;8.00;5.00;;;;;10.86;60.64;101135.72;5426137;26;44073;-67
2024/04/18 00:27:31;;;;;;;;;3.75;3.50;;;;;10.89;60.08;101133.88;5445202;26;43765;-67
2024/04/18 00:29:57;;;;;;;;;3.75;3.75;;;;;10.76;60.64;101111.09;5406472;26;43994;-67
2024/04/18 00:32:22;;;;;;;;;4.00;4.00;;;;;10.50;60.33;101069.94;5425315;26;44199;-67
2024/04/18 00:34:47;;;;;;;;;3.75;3.00;;;;;10.64;60.85;101090.03;5429645;26;44061;-67
2024/04/18 00:37:13;;;;;;;;;3.00;3.00;;;;;10.71;60.73;101097.00;5421425;26;43990;-67
2024/04/18 00:39:38;;;;;;;;;3.00;3.00;;;;;10.82;60.81;101116.25;5430006;26;43981;-67
2024/04/18 00:42:04;;;;;;;;;3.50;3.50;;;;;10.63;61.01;101072.31;5411688;26;44834;-67
2024/04/18 00:44:29;;;;;;;;;2.25;2.25;;;;;10.78;60.69;101095.91;5423203;26;44318;-67
2024/04/18 00:46:55;;;;;;;;;2.50;2.50;;;;;10.57;60.33;101076.00;5410610;26;44050;-67
2024/04/18 00:49:22;;;;;;;;;3.00;3.00;;;;;10.86;60.68;101133.94;5424904;26;43919;-67
2024/04/18 00:51:48;;;;;;;;;3.75;3.00;;;;;10.81;60.56;101121.63;5430071;26;44997;-67
2024/04/18 00:54:14;;;;;;;;;1.75;1.75;;;;;10.83;60.27;101131.34;5427619;26;43785;-67
2024/04/18 00:56:42;;;;;;;;;2.00;2.00;;;;;10.66;60.11;101113.13;5425001;26;43806;-67
2024/04/18 00:59:08;;;;;;;;;2.50;2.00;;;;;10.80;59.87;101136.78;5417101;26;44676;-67
2024/04/18 01:01:33;;;;;;;;;1.00;1.00;;;;;10.76;60.22;101143.13;5414510;26;44467;-67
2024/04/18 01:03:59;;;;;;;;;2.00;1.00;;;;;10.96;59.99;101174.66;5427224;26;43961;-67
2024/04/18 01:06:24;;;;;;;;;1.75;1.75;;;;;10.66;59.68;101142.50;5406938;26;44196;-67
2024/04/18 01:08:51;;;;;;;;;2.00;2.00;;;;;10.66;60.55;101144.28;5403959;26;44028;-67
2024/04/18 01:11:16;;;;;;;;;1.50;1.50;;;;;10.57;61.19;101150.72;5428058;26;45846;-67
2024/04/18 01:13:41;;;;;;;;;2.25;2.25;;;;;10.74;61.73;101188.56;5426798;26;43886;-67
2024/04/18 01:16:07;;;;;;;;;1.75;1.75;;;;;10.57;62.42;101180.09;5429564;26;43856;-67
2024/04/18 01:18:32;;;;;;;;;1.50;1.00;;;;;10.35;63.44;101155.75;5419708;26;43816;-67
2024/04/18 01:20:58;;;;;;;;;4.00;3.75;;;;;10.49;63.79;101187.41;5406523;26;44112;-67
2024/04/18 01:23:26;;;;;;;;;3.75;3.75;;;;;10.40;64.82;101185.00;5426007;26;44740;-67
2024/04/18 01:25:52;;;;;;;;;4.25;3.00;;;;;10.17;64.05;101152.59;5428782;26;43846;-67
2024/04/18 01:28:17;;;;;;;;;1.75;1.75;;;;;10.24;64.06;101161.31;5440017;26;44200;-67
2024/04/18 01:30:42;;;;;;;;;4.50;2.50;;;;;10.33;64.63;101182.47;5412432;26;47275;-67
2024/04/18 01:33:08;;;;;;;;;3.00;3.00;;;;;9.98;65.00;101128.13;5420317;26;43957;-67
2024/04/18 01:35:33;;;;;;;;;2.00;2.00;;;;;9.95;65.32;101133.53;5417319;26;47272;-67
2024/04/18 01:37:58;;;;;;;;;2.00;2.00;;;;;9.98;65.30;101135.28;5429322;26;44108;-67
2024/04/18 01:40:24;;;;;;;;;3.00;3.00;;;;;10.20;65.86;101181.84;5421147;26;46288;-67
2024/04/18 01:42:49;;;;;;;;;4.25;3.00;;;;;9.84;65.58;101106.28;5428639;26;53590;-67
2024/04/18 01:45:14;;;;;;;;;2.50;2.00;;;;;10.10;65.60;101150.09;5425833;26;43960;-67
2024/04/18 01:47:40;;;;;;;;;2.00;1.00;;;;;9.87;65.13;101119.50;5417332;26;44217;-68
2024/04/18 01:50:06;;;;;;;;;2.75;2.75;;;;;9.90;65.99;101135.44;5411883;26;46105;-67
2024/04/18 01:52:31;;;;;;;;;2.25;2.25;;;;;10.15;66.12;101180.22;5427598;26;43901;-67
2024/04/18 01:54:59;;;;;;;;;4.00;4.00;;;;;10.02;66.55;101160.94;5411510;26;44225;-67
2024/04/18 01:57:24;;;;;;;;;2.00;2.00;;;;;10.00;66.82;101166.31;5419013;26;44040;-67
2024/04/18 01:59:49;;;;;;;;;3.50;3.50;;;;;9.93;66.06;101155.84;5412867;26;43874;-67
2024/04/18 02:02:15;;;;;;;;;2.25;2.00;;;;;9.80;66.60;101149.91;5418759;26;48103;-67
2024/04/18 02:04:40;;;;;;;;;1.75;1.75;;;;;9.85;67.05;101172.00;5412752;26;44431;-67
2024/04/18 02:07:05;;;;;;;;;3.25;3.25;;;;;9.81;67.70;101170.31;5425782;26;54289;-67
2024/04/18 02:09:31;;;;;;;;;2.00;2.00;;;;;9.87;67.48;101178.16;5429489;26;45145;-67
2024/04/18 02:11:56;;;;;;;;;2.00;2.00;;;;;9.74;66.31;101172.25;5429107;26;44003;-67
2024/04/18 02:14:22;;;;;;;;;3.50;3.50;;;;;9.77;67.55;101180.19;5427111;26;43955;-67
2024/04/18 02:16:47;;;;;;;;;3.00;3.00;;;;;9.50;66.56;101152.31;5425981;26;44243;-67
2024/04/18 02:19:12;;;;;;;;;2.75;2.00;;;;;9.61;67.05;101178.75;5429169;26;43988;-67
2024/04/18 02:21:38;;;;;;;;;1.50;1.50;;;;;9.69;66.67;101197.22;5427267;26;44151;-67
2024/04/18 02:24:03;;;;;;;;;4.50;4.50;;;;;9.68;66.93;101193.69;5429025;26;43779;-66
2024/04/18 02:26:31;;;;;;;;;2.00;2.00;;;;;9.37;67.41;101153.47;5432628;26;43944;-67
2024/04/18 02:28:56;;;;;;;;;3.00;3.00;;;;;9.63;68.24;101199.13;5418295;26;46010;-67
2024/04/18 02:31:21;;;;;;;;;3.50;2.75;;;;;9.59;67.52;101189.44;5428642;26;44008;-67
2024/04/18 02:33:47;;;;;;;;;2.00;2.00;;;;;9.54;68.18;101178.00;5427032;26;43826;-67
2024/04/18 02:36:12;;;;;;;;;3.75;3.00;;;;;9.67;68.08;101201.72;5428075;26;46178;-67
2024/04/18 02:38:37;;;;;;;;;3.00;3.00;;;;;9.67;68.53;101213.25;5428556;26;44001;-67
2024/04/18 02:41:04;;;;;;;;;2.00;2.00;;;;;9.46;68.87;101177.28;5428719;26;43942;-67
2024/04/18 02:43:30;;;;;;;;;3.00;2.25;;;;;9.55;68.93;101189.53;5426906;26;43838;-67
2024/04/18 02:45:55;;;;;;;;;3.25;3.25;;;;;9.44;68.77;101179.97;5418122;26;44145;-67
2024/04/18 02:48:21;;;;;;;;;2.75;2.75;;;;;9.57;69.12;101207.28;5424097;26;45532;-67
2024/04/18 02:50:46;;;;;;;;;1.25;1.25;;;;;9.30;69.10;101174.03;5426783;26;44464;-67
2024/04/18 02:53:11;;;;;;;;;2.50;1.75;;;;;9.56;69.09;101213.50;5427001;26;45255;-67
2024/04/18 02:55:37;;;;;;;;;3.00;3.00;;;;;9.52;69.66;101214.47;5406443;26;43838;-67
2024/04/18 02:58:02;;;;;;;;;2.00;2.00;;;;;9.30;69.35;101176.72;5423546;26;44092;-66
2024/04/18 03:00:27;;;;;;;;;2.25;2.25;;;;;9.33;70.15;101189.97;5426756;26;43973;-67
2024/04/18 03:02:53;;;;;;;;;3.50;3.50;;;;;9.53;69.31;101210.03;5428702;26;43840;-67
2024/04/18 03:05:19;;;;;;;;;3.75;3.75;;;;;9.36;68.95;101170.41;5423946;26;43856;-67
2024/04/18 03:07:44;;;;;;;;;4.75;4.50;;;;;9.46;69.39;101188.81;5425920;26;43994;-67
2024/04/18 03:10:09;;;;;;;;;3.50;3.50;;;;;9.36;69.68;101171.28;5420773;26;44601;-67
2024/04/18 03:12:35;;;;;;;;;8.00;5.25;;;;;9.30;70.35;101165.19;5428839;26;43895;-67
2024/04/18 03:15:00;;;;;;;;;4.50;4.50;;;;;9.62;69.90;101220.47;5428744;26;44462;-67
2024/04/18 03:17:25;;;;;;;;;5.00;5.00;;;;;9.56;69.86;101207.28;5417370;26;44865;-67
2024/04/18 03:19:51;;;;;;;;;6.50;6.25;;;;;9.64;69.30;101214.22;5426981;26;43862;-67
2024/04/18 03:22:16;;;;;;;;;5.00;5.00;;;;;9.54;69.47;101207.31;5441414;25;44122;-67
2024/04/18 03:24:41;;;;;;;;;4.00;4.00;;;;;9.61;70.08;101224.06;5428399;26;44047;-67
2024/04/18 03:27:07;;;;;;;;;3.50;3.50;;;;;9.30;69.84;101166.06;5440267;26;45723;-67
2024/04/18 03:29:32;;;;;;;;;3.00;2.50;;;;;9.53;70.18;101194.03;5435362;25;43781;-67
2024/04/18 03:31:58;;;;;;;;;4.00;4.00;;;;;9.46;70.41;101199.47;5428456;26;43897;-67
2024/04/18 03:34:23;;;;;;;;;3.00;3.00;;;;;9.68;70.02;101244.34;5428202;26;44009;-67
2024/04/18 03:36:52;;;;;;;;;4.75;4.75;;;;;9.58;69.82;101225.00;5416772;26;44679;-67
2024/04/18 03:39:18;;;;;;;;;4.75;4.75;;;;;9.63;70.03;101249.75;5428335;26;44323;-67
2024/04/18 03:41:46;;;;;;;;;3.25;3.25;;;;;9.56;69.81;101237.47;5407221;26;44061;-67
2024/04/18 03:44:11;;;;;;;;;6.50;4.50;;;;;9.38;70.14;101220.06;5427864;26;44015;-67
2024/04/18 03:46:37;;;;;;;;;5.00;5.00;;;;;9.32;70.00;101200.66;5412732;26;43969;-66
2024/04/18 03:49:03;;;;;;;;;4.00;4.00;;;;;9.56;69.67;101240.16;5418150;26;43995;-67
2024/04/18 03:51:30;;;;;;;;;3.75;3.00;;;;;9.31;69.75;101205.13;5428376;26;44015;-67
2024/04/18 03:53:55;;;;;;;;;4.75;3.00;;;;;9.53;70.06;101263.31;5425946;26;44933;-66
2024/04/18 03:56:21;;;;;;;;;3.75;2.50;;;;;9.28;70.01;101219.38;5418739;26;45732;-67
2024/04/18 03:58:46;;;;;;;;;3.50;3.50;;;;;9.20;69.98;101212.44;5427894;26;43807;-67
2024/04/18 04:01:12;;;;;;;;;4.00;4.00;;;;;9.15;69.98;101225.84;5411642;26;44028;-67
2024/04/18 04:03:37;;;;;;;;;5.50;3.00;;;;;9.22;69.75;101238.16;5427578;26;43876;-67
2024/04/18 04:06:02;;;;;;;;;5.50;3.00;;;;;9.33;69.67;101267.25;5416486;26;43978;-67
2024/04/18 04:08:28;;;;;;;;;3.00;2.00;;;;;9.11;69.90;101239.25;5418926;26;44095;-66
2024/04/18 04:10:53;;;;;;;;;2.75;2.75;;;;;9.11;70.24;101249.91;5428037;26;44489;-67
2024/04/18 04:13:18;;;;;;;;;5.25;3.75;;;;;9.13;70.25;101256.94;5424826;26;43972;-67
2024/04/18 04:15:48;;;;;;;;;2.25;2.25;;;;;8.92;69.97;101228.94;5425989;26;54515;-66
2024/04/18 04:18:13;;;;;;;;;3.00;2.75;;;;;9.03;70.05;101253.56;5416153;26;44114;-67
2024/04/18 04:20:38;;;;;;;;;4.00;4.00;;;;;9.04;69.73;101246.47;5425851;26;44501;-67
2024/04/18 04:23:04;;;;;;;;;5.25;5.25;;;;;9.03;69.99;101242.91;5425066;26;44147;-66
2024/04/18 04:25:29;;;;;;;;;3.75;3.75;;;;;9.05;70.36;101256.22;5424109;26;43824;-67
2024/04/18 04:27:54;;;;;;;;;4.00;4.00;;;;;8.96;70.00;101237.75;5423171;26;43967;-67
2024/04/18 04:30:20;;;;;;;;;6.00;3.75;;;;;9.20;70.08;101277.22;5424514;26;43824;-67
2024/04/18 04:32:45;;;;;;;;;4.00;4.00;;;;;9.12;70.05;101264.97;5421436;26;44314;-67
2024/04/18 04:35:12;;;;;;;;;4.00;4.00;;;;;9.17;69.92;101276.41;5424421;26;44810;-67
2024/04/18 04:37:37;;;;;;;;;6.50;4.00;;;;;9.31;70.19;101305.50;5391956;26;44434;-66
2024/04/18 04:40:03;;;;;;;;;6.00;6.00;;;;;9.09;70.63;101284.56;5427257;26;43935;-66
2024/04/18 04:42:28;;;;;;;;;3.50;2.75;;;;;9.26;70.45;101310.91;5427013;26;43925;-66
2024/04/18 04:44:54;;;;;;;;;7.25;6.50;;;;;9.19;70.13;101299.47;5423989;26;43901;-66
2024/04/18 04:47:20;;;;;;;;;3.25;3.25;;;;;9.26;70.53;101313.56;5408688;26;43912;-67
2024/04/18 04:49:45;;;;;;;;;7.25;6.50;;;;;9.13;69.88;101296.03;5421934;26;43879;-67
2024/04/18 04:52:10;;;;;;;;;6.25;4.00;;;;;9.11;70.37;101300.53;5423284;26;44351;-66
2024/04/18 04:54:37;;;;;;;;;3.75;3.50;;;;;9.29;70.38;101332.16;5420991;26;47153;-67
2024/04/18 04:57:03;;;;;;;;;3.25;3.00;;;;;9.10;70.24;101312.94;5416812;26;43863;-67
2024/04/18 04:59:28;;;;;;;;;4.00;4.00;;;;;9.30;70.19;101355.22;5402382;26;43988;-68
2024/04/18 05:01:54;;;;;;;;;1.00;1.00;;;;;9.32;69.57;101361.41;5421811;26;44083;-68
2024/04/18 05:04:19;;;;;;;;;6.00;6.00;;;;;9.11;69.91;101327.16;5425352;26;44632;-68
2024/04/18 05:06:44;;;;;;;;;2.00;2.00;;;;;9.28;70.66;101368.56;5422792;26;43925;-68
2024/04/18 05:09:10;;;;;;;;;6.50;6.00;;;;;9.21;70.58;101366.03;5407860;26;43885;-66
2024/04/18 05:11:36;;;;;;;;;3.00;3.00;;;;;9.08;70.68;101355.56;5422130;26;44594;-67
2024/04/18 05:14:02;;;;;;;;;6.00;4.00;;;;;8.85;70.87;101332.00;5416992;26;43875;-67
2024/04/18 05:16:27;;;;;;;;;6.75;6.75;;;;;8.89;70.90;101351.47;5404704;26;43986;-66
2024/04/18 05:18:52;;;;;;;;;6.00;4.00;;;;;8.96;70.44;101368.22;5428741;25;44249;-67
2024/04/18 05:21:18;;;;;;;;;6.00;6.00;;;;;8.88;70.70;101360.34;5429201;26;44052;-66
2024/04/18 05:23:43;;;;;;;;;6.50;6.25;;;;;8.97;71.14;101372.63;5429516;26;44903;-66
2024/04/18 05:26:09;;;;;;;;;4.00;4.00;;;;;9.06;71.46;101394.66;5418109;26;43837;-66
2024/04/18 05:28:41;;;;;;;;;7.50;6.00;;;;;9.16;70.53;101414.06;5423682;26;44228;-66
2024/04/18 05:31:07;;;;;;;;;6.25;6.25;;;;;9.01;71.39;101395.66;5402052;26;44743;-66
2024/04/18 05:33:33;;;;;;;;;7.75;7.00;;;;;8.94;70.99;101397.53;5427074;26;45457;-66
2024/04/18 05:35:59;;;;;;;;;7.00;7.00;;;;;8.90;71.44;101395.81;5411011;26;43787;-67
2024/04/18 05:38:25;;;;;;;;;7.50;6.75;;;;;9.08;70.78;101422.16;5423444;26;45650;-67
2024/04/18 05:40:50;;;;;;;;;8.50;7.50;;;;;8.96;70.86;101405.50;5415602;26;43997;-66
2024/04/18 05:43:16;;;;;;;;;3.75;3.25;;;;;8.86;70.89;101389.66;5406094;26;43938;-66
2024/04/18 05:45:45;;;;;;;;;8.75;8.75;;;;;9.12;70.54;101439.00;5403234;26;44174;-67
2024/04/18 05:48:11;;;;;;;;;6.50;6.50;;;;;8.94;70.83;101413.50;5404399;26;43913;-65
2024/04/18 05:50:36;;;;;;;;;6.50;4.75;;;;;9.02;70.84;101429.34;5417296;26;43849;-65
2024/04/18 05:53:01;;;;;;;;;7.00;4.25;;;;;8.87;70.75;101404.72;5413211;26;45857;-65
2024/04/18 05:55:27;;;;;;;;;8.00;7.00;;;;;8.94;70.23;101415.28;5404946;26;43891;-65
2024/04/18 05:57:52;;;;;;;;;8.25;8.00;;;;;8.83;69.93;101412.78;5393336;26;44059;-65
2024/04/18 06:00:18;;;;;;;;;7.75;4.00;;;;;8.92;70.22;101435.72;5401847;26;44005;-65
2024/04/18 06:02:43;;;;;;;;;7.50;6.00;;;;;8.91;69.98;101434.84;5414214;26;44759;-65
2024/04/18 06:05:08;;;;;;;;;5.00;4.75;;;;;9.13;70.30;101478.03;5420278;26;54933;-64
2024/04/18 06:07:34;;;;;;;;;7.25;6.00;;;;;8.93;70.16;101445.47;5415740;26;44042;-65
2024/04/18 06:09:59;;;;;;;;;8.00;5.00;;;;;8.97;70.66;101458.75;5416959;26;44205;-65
2024/04/18 06:12:25;;;;;;;;;4.50;4.50;;;;;9.14;71.17;101485.13;5407964;26;43889;-66
2024/04/18 06:14:50;;;;;;;;;4.25;4.25;;;;;8.88;70.47;101445.53;5417350;26;44310;-67
2024/04/18 06:17:16;;;;;;;;;7.00;5.75;;;;;9.12;71.05;101481.59;5401655;26;44053;-66
2024/04/18 06:19:41;;;;;;;;;7.00;6.00;;;;;8.93;70.37;101459.66;5402669;26;44146;-66
2024/04/18 06:22:07;;;;;;;;;7.75;7.50;;;;;8.91;70.54;101464.13;5424328;26;47036;-66
2024/04/18 06:24:32;;;;;;;;;7.75;6.25;;;;;9.07;69.98;101478.09;5409378;26;44032;-66
2024/04/18 06:26:58;;;;;;;;;8.25;6.00;;;;;9.14;70.03;101494.88;5409957;26;43792;-66
2024/04/18 06:29:23;;;;;;;;;6.00;6.00;;;;;8.95;69.79;101478.28;5413827;26;44136;-66
2024/04/18 06:31:48;;;;;;;;;3.00;3.00;;;;;8.82;70.08;101477.56;5408303;26;45318;-66
2024/04/18 06:34:14;;;;;;;;;3.75;3.75;;;;;9.00;69.87;101519.03;5413206;26;43986;-66
2024/04/18 06:36:39;;;;;;;;;6.25;4.00;;;;;8.74;70.02;101480.34;5413351;26;43848;-66
2024/04/18 06:39:07;;;;;;;;;3.75;2.50;;;;;8.84;70.46;101508.59;5394567;26;43982;-66
2024/04/18 06:41:34;;;;;;;;;5.00;4.00;;;;;8.85;70.79;101504.16;5407213;26;44106;-65
2024/04/18 06:44:00;;;;;;;;;5.00;5.00;;;;;8.79;70.81;101489.16;5401979;26;44014;-65
2024/04/18 06:46:26;;;;;;;;;4.00;4.00;;;;;9.02;70.92;101526.13;5421934;26;43975;-66
2024/04/18 06:48:52;;;;;;;;;6.00;6.00;;;;;8.87;70.56;101508.56;5427004;26;44483;-66
2024/04/18 06:51:17;;;;;;;;;7.00;7.00;;;;;8.76;70.01;101498.97;5415946;26;45981;-66
2024/04/18 06:53:43;;;;;;;;;8.75;8.00;;;;;8.74;70.64;101514.03;5422117;26;44032;-68
2024/04/18 06:56:08;;;;;;;;;6.50;6.50;;;;;8.74;70.40;101520.28;5416923;26;43766;-66
2024/04/18 06:58:33;;;;;;;;;12.75;12.75;;;;;8.87;70.54;101537.84;5412620;26;43982;-66
2024/04/18 07:00:59;;;;;;;;;9.00;8.50;;;;;8.66;70.57;101504.38;5402034;26;43903;-66
2024/04/18 07:03:24;;;;;;;;;7.00;6.00;;;;;9.01;71.10;101564.31;5418781;26;45593;-66
2024/04/18 07:05:50;;;;;;;;;4.50;4.50;;;;;9.00;70.51;101559.00;5421037;26;43931;-66
2024/04/18 07:08:15;;;;;;;;;6.75;6.75;;;;;8.75;70.49;101518.47;5423468;26;45130;-66
2024/04/18 07:10:41;;;;;;;;;9.00;8.00;;;;;8.92;70.68;101548.47;5422678;26;46298;-66
2024/04/18 07:13:07;;;;;;;;;6.00;6.00;;;;;8.95;70.76;101548.38;5424795;26;44008;-66
2024/04/18 07:15:32;;;;;;;;;7.00;6.25;;;;;8.85;70.30;101529.00;5415626;26;43853;-66
2024/04/18 07:17:57;;;;;;;;;6.00;6.00;;;;;9.16;70.40;101583.66;5421101;26;54343;-66
2024/04/18 07:20:24;;;;;;;;;7.75;6.50;;;;;9.14;70.52;101566.78;5404305;26;44799;-66
2024/04/18 07:22:50;;;;;;;;;7.75;6.25;;;;;9.06;70.50;101549.13;5420640;26;44306;-66
2024/04/18 07:25:15;;;;;;;;;6.50;6.50;;;;;9.13;71.28;101551.72;5400552;26;44123;-66
2024/04/18 07:27:40;;;;;;;;;6.75;6.75;;;;;9.07;70.77;101539.34;5404492;26;44235;-66
2024/04/18 07:30:06;;;;;;;;;9.75;8.50;;;;;9.11;70.34;101543.75;5423885;26;43898;-66
2024/04/18 07:32:31;;;;;;;;;5.25;3.75;;;;;9.14;69.80;101570.34;5416790;26;44535;-66
2024/04/18 07:34:57;;;;;;;;;7.50;6.75;;;;;9.18;69.47;101582.72;5426309;26;45237;-66
2024/04/18 07:37:22;;;;;;;;;8.50;8.00;;;;;9.12;70.15;101577.50;5413770;26;43890;-66
2024/04/18 07:39:48;;;;;;;;;7.50;6.75;;;;;9.03;69.99;101564.28;5414165;26;44822;-66
2024/04/18 07:42:15;;;;;;;;;7.00;6.75;;;;;9.25;70.45;101595.09;5411597;26;43752;-66
2024/04/18 07:44:41;;;;;;;;;8.50;8.50;;;;;9.33;70.19;101612.75;5406194;26;43848;-66
2024/04/18 07:47:06;;;;;;;;;4.00;4.00;;;;;9.15;70.32;101590.75;5397727;26;44038;-66
2024/04/18 07:49:32;;;;;;;;;7.75;7.00;;;;;9.13;69.67;101589.91;5414654;26;44627;-66
2024/04/18 07:51:57;;;;;;;;;8.00;8.00;;;;;9.12;69.76;101595.25;5422561;26;44096;-66
2024/04/18 07:54:23;;;;;;;;;7.75;7.75;;;;;9.26;70.24;101618.13;5405693;26;43920;-66
2024/04/18 07:56:48;;;;;;;;;7.50;7.50;;;;;9.11;70.17;101596.16;5414075;26;43900;-66
2024/04/18 07:59:14;;;;;;;;;11.00;8.50;;;;;9.12;70.22;101590.81;5425162;26;46793;-66
2024/04/18 08:01:40;;;;;;;;;9.25;9.00;;;;;9.41;69.61;101641.03;5426380;26;44003;-66
2024/04/18 08:04:06;;;;;;;;;11.75;8.50;;;;;9.26;69.69;101615.47;5425902;26;44018;-66
2024/04/18 08:06:32;;;;;;;;;7.25;7.25;;;;;9.16;69.08;101604.97;5427704;26;44006;-66
2024/04/18 08:08:59;;;;;;;;;5.00;5.00;;;;;9.19;69.69;101615.59;5427544;26;43952;-66
2024/04/18 08:11:25;;;;;;;;;7.50;7.50;;;;;9.07;69.29;101596.19;5423037;26;43834;-66
2024/04/18 08:13:50;;;;;;;;;6.75;6.75;;;;;9.14;69.57;101620.06;5419887;26;43780;-66
2024/04/18 08:16:15;;;;;;;;;8.75;8.75;;;;;9.31;69.97;101651.84;5402538;26;44103;-66
2024/04/18 08:18:41;;;;;;;;;9.25;7.00;;;;;9.14;68.89;101622.72;5436873;26;44644;-66
2024/04/18 08:21:06;;;;;;;;;5.25;5.25;;;;;9.09;69.22;101625.47;5427360;26;44989;-66
2024/04/18 08:23:31;;;;;;;;;8.25;7.75;;;;;9.11;69.14;101626.31;5415778;26;43865;-66
2024/04/18 08:25:57;;;;;;;;;7.00;7.00;;;;;9.36;68.70;101658.00;5414119;26;43882;-66
2024/04/18 08:28:22;;;;;;;;;5.25;5.25;;;;;9.40;68.34;101665.91;5427657;26;44801;-66
2024/04/18 08:30:47;;;;;;;;;8.50;8.25;;;;;9.34;68.52;101659.78;5425216;26;43933;-66
2024/04/18 08:33:13;;;;;;;;;8.50;7.00;;;;;9.26;68.87;101644.78;5430970;26;44051;-68
2024/04/18 08:35:38;;;;;;;;;4.00;4.00;;;;;9.43;68.90;101686.31;5423513;26;44530;-68
2024/04/18 08:38:04;;;;;;;;;7.50;7.50;;;;;9.48;69.19;101687.16;5425167;26;43833;-68
2024/04/18 08:40:31;;;;;;;;;5.25;5.25;;;;;9.33;69.08;101650.03;5417862;26;44333;-66
2024/04/18 08:42:56;;;;;;;;;10.25;8.00;;;;;9.29;68.55;101649.19;5423767;26;44289;-66
2024/04/18 08:45:24;;;;;;;;;7.25;7.00;;;;;9.55;68.80;101687.94;5420733;26;44106;-66
2024/04/18 08:47:52;;;;;;;;;8.75;5.75;;;;;9.64;69.34;101711.84;5401931;26;45354;-66
2024/04/18 08:50:19;;;;;;;;;8.25;8.25;;;;;9.51;69.54;101695.09;5409766;26;44252;-66
2024/04/18 08:52:45;;;;;;;;;11.25;8.50;;;;;9.30;69.49;101642.97;5428017;26;43961;-66
2024/04/18 08:55:11;;;;;;;;;9.75;9.75;;;;;9.41;69.10;101667.69;5411381;26;44369;-66
2024/04/18 08:58:04;;;;;;;;;8.25;8.25;;;;;9.71;68.81;101716.19;5420979;26;44244;-66
2024/04/18 09:00:29;;;;;;;;;7.50;6.75;;;;;9.44;68.87;101686.31;5412758;26;44636;-66
2024/04/18 09:02:55;;;;;;;;;3.50;3.50;;;;;9.39;68.04;101664.16;5408653;26;43956;-66
2024/04/18 09:05:20;;;;;;;;;4.75;4.25;;;;;9.57;68.50;101697.72;5396114;26;44930;-66
2024/04/18 09:07:46;;;;;;;;;3.00;2.50;;;;;9.44;67.57;101672.97;5429558;26;43970;-66
2024/04/18 09:10:11;;;;;;;;;4.25;4.25;;;;;9.41;66.92;101667.69;5406686;26;44102;-66
2024/04/18 09:12:37;;;;;;;;;4.75;4.00;;;;;9.66;67.01;101712.69;5395707;26;44291;-66
2024/04/18 09:15:04;;;;;;;;;7.25;7.00;;;;;9.67;67.37;101706.44;5418154;26;44072;-66
2024/04/18 09:17:29;;;;;;;;;2.50;2.50;;;;;9.71;67.45;101710.84;5409630;26;45941;-66
2024/04/18 09:19:55;;;;;;;;;5.25;5.25;;;;;9.70;67.39;101708.19;5429874;26;43816;-66
2024/04/18 09:22:21;;;;;;;;;5.00;5.00;;;;;9.87;67.02;101731.97;5426906;26;44264;-66
2024/04/18 09:24:46;;;;;;;;;7.00;7.00;;;;;9.73;67.30;101708.16;5411858;26;44147;-66
2024/04/18 09:27:13;;;;;;;;;4.25;4.25;;;;;9.89;66.16;101738.16;5421364;26;44609;-66
2024/04/18 09:29:39;;;;;;;;;5.00;4.50;;;;;9.63;66.77;101702.06;5427434;26;43941;-66
2024/04/18 09:32:05;;;;;;;;;5.00;5.00;;;;;9.97;67.06;101746.94;5433609;26;44082;-66
2024/04/18 09:34:31;;;;;;;;;5.00;5.00;;;;;9.99;66.51;101747.81;5436468;25;43846;-66
2024/04/18 09:37:07;;;;;;;;;5.25;4.00;;;;;10.02;65.87;101755.75;5404939;26;45889;-66
2024/04/18 09:39:34;;;;;;;;;3.25;3.25;;;;;9.75;65.73;101703.69;5429674;26;44257;-66
2024/04/18 09:42:13;;;;;;;;;7.00;7.00;;;;;9.80;65.17;101724.03;5410909;26;44075;-66
2024/04/18 09:44:45;;;;;;;;;4.00;4.00;;;;;9.81;65.88;101717.81;5394539;26;43996;-66
2024/04/18 09:47:13;;;;;;;;;8.00;4.25;;;;;9.83;65.84;101713.34;5423100;26;44062;-66
2024/04/18 09:49:40;;;;;;;;;7.75;5.50;;;;;9.98;65.71;101735.38;5453253;26;43910;-66
2024/04/18 09:52:06;;;;;;;;;7.00;7.00;;;;;10.02;65.01;101734.41;5416818;26;43878;-66
2024/04/18 09:54:33;;;;;;;;;5.00;5.00;;;;;10.01;64.75;101740.66;5423449;26;43938;-66
2024/04/18 09:57:00;;;;;;;;;6.00;4.50;;;;;10.01;65.70;101732.66;5409978;26;44364;-66
2024/04/18 09:59:27;;;;;;;;;4.50;4.25;;;;;10.05;65.01;101739.72;5403573;26;44367;-66
2024/04/18 10:01:53;;;;;;;;;4.25;4.25;;;;;10.08;65.26;101736.13;5412490;26;43884;-66
2024/04/18 10:04:22;;;;;;;;;7.00;7.00;;;;;10.16;65.44;101745.78;5423316;26;43992;-66
2024/04/18 10:06:49;;;;;;;;;7.25;5.50;;;;;10.15;65.39;101732.47;5411759;26;45057;-66
2024/04/18 10:09:17;;;;;;;;;5.00;5.00;;;;;10.17;64.35;101727.97;5411863;26;44271;-66
2024/04/18 10:11:44;;;;;;;;;4.50;4.50;;;;;10.18;64.31;101719.06;5406444;26;44308;-66
2024/04/18 10:14:10;;;;;;;;;4.00;4.00;;;;;10.55;64.25;101785.25;5418327;26;44058;-66
2024/04/18 10:16:48;;;;;;;;;8.00;5.50;;;;;10.32;62.95;101748.25;5397740;26;45199;-66
2024/04/18 10:19:21;;;;;;;;;7.25;7.25;;;;;10.14;63.36;101730.69;5416107;26;43996;-66
2024/04/18 10:21:56;;;;;;;;;7.50;5.00;;;;;10.51;64.02;101784.44;5413915;26;43898;-66
2024/04/18 10:24:23;;;;;;;;;8.00;5.75;;;;;10.27;63.57;101734.06;5428442;26;43913;-66
2024/04/18 10:27:01;;;;;;;;;7.25;5.00;;;;;10.11;62.64;101712.06;5409920;26;44239;-66
2024/04/18 10:29:27;;;;;;;;;4.75;3.75;;;;;10.40;63.17;101754.34;5416921;26;44280;-66
2024/04/18 10:31:54;;;;;;;;;5.50;5.50;;;;;10.44;63.07;101756.09;5399899;26;44216;-66
2024/04/18 10:34:26;;;;;;;;;6.25;6.25;;;;;10.55;63.11;101767.44;5423579;26;44022;-66
2024/04/18 10:36:53;;;;;;;;;4.75;4.75;;;;;10.54;63.49;101754.13;5417354;26;43873;-66
2024/04/18 10:39:29;;;;;;;;;4.50;4.50;;;;;10.64;62.23;101758.44;5402346;26;44303;-66
2024/04/18 10:42:00;;;;;;;;;6.25;6.25;;;;;10.71;62.42;101768.09;5421771;26;44000;-66
2024/04/18 10:44:26;;;;;;;;;6.00;4.75;;;;;10.94;62.41;101789.09;5425317;26;44167;-66
2024/04/18 10:46:54;;;;;;;;;5.00;5.00;;;;;10.95;61.76;101781.94;5399303;26;44896;-66
2024/04/18 10:49:22;;;;;;;;;3.00;3.00;;;;;10.88;62.05;101765.13;5406070;26;44359;-66
2024/04/18 10:51:49;;;;;;;;;4.25;4.25;;;;;10.85;61.54;101751.81;5392584;26;43898;-66
2024/04/18 10:54:14;;;;;;;;;4.00;4.00;;;;;10.87;61.17;101757.16;5412269;26;43833;-65
2024/04/18 10:56:40;;;;;;;;;5.50;4.25;;;;;11.06;60.86;101774.63;5392952;26;44072;-66
2024/04/18 10:59:07;;;;;;;;;4.75;4.25;;;;;11.10;61.13;101770.09;5410500;26;43956;-64
2024/04/18 11:01:37;;;;;;;;;2.00;2.00;;;;;11.11;60.04;101759.38;5423359;26;44111;-68
2024/04/18 11:04:03;;;;;;;;;4.75;4.75;;;;;11.14;60.25;101753.09;5408732;26;43955;-68
2024/04/18 11:06:29;;;;;;;;;6.00;5.00;;;;;11.20;59.11;101752.09;5410545;26;44990;-68
2024/04/18 11:08:55;;;;;;;;;5.50;4.75;;;;;11.21;58.88;101761.88;5399190;26;43888;-66
2024/04/18 11:11:26;;;;;;;;;6.00;6.00;;;;;11.22;58.92;101763.66;5421035;26;43842;-66
2024/04/18 11:13:56;;;;;;;;;5.00;5.00;;;;;11.23;58.62;101755.59;5400984;26;44113;-66
2024/04/18 11:16:31;;;;;;;;;6.00;6.00;;;;;11.31;58.59;101761.69;5413295;26;44550;-66
2024/04/18 11:18:56;;;;;;;;;3.00;3.00;;;;;11.31;59.24;101759.00;5454523;25;43931;-66
2024/04/18 11:21:25;;;;;;;;;4.00;4.00;;;;;11.56;58.97;101793.28;5421432;26;44548;-66
2024/04/18 11:23:51;;;;;;;;;1.25;1.25;;;;;11.55;58.11;101780.81;5412822;26;44517;-66
2024/04/18 11:26:20;;;;;;;;;3.00;3.00;;;;;11.37;57.43;101749.09;5402037;26;44337;-66